Terminal Aerodrome Forecast
Issued by NWS Sterling, VA

Current Version | Previous Version | Graphics & Text | Print | Product List | Glossary On
Versions: 1 2 3 4 5 6 7 8 9 10 11 12 13 14 15 16 17 18 19 20 21 22 23 24 25 26 27 28
000
FTUS41 KLWX 271726
TAFDCA
TAF
KDCA 271726Z 2718/2818 14012G20KT 2SM SHRA VCTS BKN009 OVC015CB
     FM271900 15013KT 3SM -SHRA OVC015
     FM272100 16013KT 3SM +TSRA OVC010CB
     FM280200 20006KT 3SM SHRA OVC025
     FM280500 26006KT 6SM -SHRA BKN020
     FM281000 27007KT P6SM SCT060
     FM281200 25012G18KT P6SM FEW110=

USA.gov is the U.S. government's official web portal to all federal, state and local government web resources and services.